sensor_id;sensor_type;location;lat;lon;timestamp;P1;durP1;ratioP1;P2;durP2;ratioP2
66667;SDS011;57205;51.438;-2.006;2023-12-04T00:00:18;2.72;;;1.73;;
66667;SDS011;57205;51.438;-2.006;2023-12-04T00:02:44;3.13;;;1.48;;
66667;SDS011;57205;51.438;-2.006;2023-12-04T00:05:09;3.13;;;1.33;;
66667;SDS011;57205;51.438;-2.006;2023-12-04T00:07:34;3.15;;;1.42;;
66667;SDS011;57205;51.438;-2.006;2023-12-04T00:10:00;2.67;;;1.52;;
66667;SDS011;57205;51.438;-2.006;2023-12-04T00:12:26;3.55;;;1.60;;
66667;SDS011;57205;51.438;-2.006;2023-12-04T00:14:52;3.75;;;1.70;;
66667;SDS011;57205;51.438;-2.006;2023-12-04T00:17:17;3.08;;;1.60;;
66667;SDS011;57205;51.438;-2.006;2023-12-04T00:19:43;3.65;;;1.73;;
66667;SDS011;57205;51.438;-2.006;2023-12-04T00:22:09;3.42;;;1.80;;
66667;SDS011;57205;51.438;-2.006;2023-12-04T00:24:34;5.03;;;1.60;;
66667;SDS011;57205;51.438;-2.006;2023-12-04T00:26:59;4.30;;;1.45;;
66667;SDS011;57205;51.438;-2.006;2023-12-04T00:29:25;3.65;;;1.55;;
66667;SDS011;57205;51.438;-2.006;2023-12-04T00:31:50;5.28;;;1.35;;
66667;SDS011;57205;51.438;-2.006;2023-12-04T00:34:16;2.75;;;1.10;;
66667;SDS011;57205;51.438;-2.006;2023-12-04T00:36:41;3.28;;;1.30;;
66667;SDS011;57205;51.438;-2.006;2023-12-04T00:39:06;4.22;;;1.83;;
66667;SDS011;57205;51.438;-2.006;2023-12-04T00:41:32;2.88;;;1.40;;
66667;SDS011;57205;51.438;-2.006;2023-12-04T00:43:57;2.00;;;1.15;;
66667;SDS011;57205;51.438;-2.006;2023-12-04T00:46:23;2.85;;;1.38;;
66667;SDS011;57205;51.438;-2.006;2023-12-04T00:48:49;2.72;;;1.42;;
66667;SDS011;57205;51.438;-2.006;2023-12-04T00:51:15;3.05;;;1.40;;
66667;SDS011;57205;51.438;-2.006;2023-12-04T00:53:40;5.90;;;1.55;;
66667;SDS011;57205;51.438;-2.006;2023-12-04T00:56:06;3.63;;;1.35;;
66667;SDS011;57205;51.438;-2.006;2023-12-04T00:58:31;3.00;;;1.33;;
66667;SDS011;57205;51.438;-2.006;2023-12-04T01:00:57;4.30;;;1.67;;
66667;SDS011;57205;51.438;-2.006;2023-12-04T01:03:22;3.38;;;1.50;;
66667;SDS011;57205;51.438;-2.006;2023-12-04T01:05:48;2.70;;;1.20;;
66667;SDS011;57205;51.438;-2.006;2023-12-04T01:08:13;4.38;;;1.60;;
66667;SDS011;57205;51.438;-2.006;2023-12-04T01:10:39;4.00;;;1.52;;
66667;SDS011;57205;51.438;-2.006;2023-12-04T01:13:04;1.98;;;1.30;;
66667;SDS011;57205;51.438;-2.006;2023-12-04T01:15:30;2.35;;;1.02;;
66667;SDS011;57205;51.438;-2.006;2023-12-04T01:17:55;4.03;;;1.25;;
66667;SDS011;57205;51.438;-2.006;2023-12-04T01:20:21;3.17;;;1.55;;
66667;SDS011;57205;51.438;-2.006;2023-12-04T01:22:46;3.55;;;1.40;;
66667;SDS011;57205;51.438;-2.006;2023-12-04T01:25:12;3.08;;;1.50;;
66667;SDS011;57205;51.438;-2.006;2023-12-04T01:27:37;1.75;;;1.20;;
66667;SDS011;57205;51.438;-2.006;2023-12-04T01:30:04;8.05;;;2.13;;
66667;SDS011;57205;51.438;-2.006;2023-12-04T01:32:30;5.60;;;1.25;;
66667;SDS011;57205;51.438;-2.006;2023-12-04T01:34:57;3.13;;;1.42;;
66667;SDS011;57205;51.438;-2.006;2023-12-04T01:37:24;3.22;;;1.50;;
66667;SDS011;57205;51.438;-2.006;2023-12-04T01:39:49;2.67;;;1.60;;
66667;SDS011;57205;51.438;-2.006;2023-12-04T01:42:15;3.95;;;1.33;;
66667;SDS011;57205;51.438;-2.006;2023-12-04T01:44:40;2.97;;;1.40;;
66667;SDS011;57205;51.438;-2.006;2023-12-04T01:47:07;6.55;;;1.52;;
66667;SDS011;57205;51.438;-2.006;2023-12-04T01:49:34;4.28;;;1.55;;
66667;SDS011;57205;51.438;-2.006;2023-12-04T01:52:01;4.32;;;1.50;;
66667;SDS011;57205;51.438;-2.006;2023-12-04T01:54:28;5.70;;;2.40;;
66667;SDS011;57205;51.438;-2.006;2023-12-04T01:56:55;6.13;;;1.60;;
66667;SDS011;57205;51.438;-2.006;2023-12-04T01:59:21;2.70;;;1.50;;
66667;SDS011;57205;51.438;-2.006;2023-12-04T02:01:46;4.00;;;1.50;;
66667;SDS011;57205;51.438;-2.006;2023-12-04T02:04:13;2.58;;;1.50;;
66667;SDS011;57205;51.438;-2.006;2023-12-04T02:06:40;3.38;;;1.50;;
66667;SDS011;57205;51.438;-2.006;2023-12-04T02:09:05;2.80;;;1.40;;
66667;SDS011;57205;51.438;-2.006;2023-12-04T02:11:32;3.20;;;1.20;;
66667;SDS011;57205;51.438;-2.006;2023-12-04T02:13:57;3.55;;;1.15;;
66667;SDS011;57205;51.438;-2.006;2023-12-04T02:16:23;2.45;;;1.20;;
66667;SDS011;57205;51.438;-2.006;2023-12-04T02:18:52;3.08;;;1.30;;
66667;SDS011;57205;51.438;-2.006;2023-12-04T02:21:18;3.17;;;1.02;;
66667;SDS011;57205;51.438;-2.006;2023-12-04T02:23:47;1.45;;;0.90;;
66667;SDS011;57205;51.438;-2.006;2023-12-04T02:26:15;3.75;;;1.52;;
66667;SDS011;57205;51.438;-2.006;2023-12-04T02:28:45;2.67;;;1.17;;
66667;SDS011;57205;51.438;-2.006;2023-12-04T02:31:15;1.58;;;0.85;;
66667;SDS011;57205;51.438;-2.006;2023-12-04T02:33:43;1.98;;;1.10;;
66667;SDS011;57205;51.438;-2.006;2023-12-04T02:36:11;1.98;;;0.90;;
66667;SDS011;57205;51.438;-2.006;2023-12-04T02:38:38;3.03;;;1.13;;
66667;SDS011;57205;51.438;-2.006;2023-12-04T02:41:04;3.28;;;1.00;;
66667;SDS011;57205;51.438;-2.006;2023-12-04T02:43:30;2.70;;;1.10;;
66667;SDS011;57205;51.438;-2.006;2023-12-04T02:46:00;2.95;;;1.00;;
66667;SDS011;57205;51.438;-2.006;2023-12-04T02:48:28;1.77;;;0.98;;
66667;SDS011;57205;51.438;-2.006;2023-12-04T02:50:53;2.25;;;1.20;;
66667;SDS011;57205;51.438;-2.006;2023-12-04T02:53:18;3.45;;;0.90;;
66667;SDS011;57205;51.438;-2.006;2023-12-04T02:55:44;2.03;;;1.10;;
66667;SDS011;57205;51.438;-2.006;2023-12-04T02:58:09;2.67;;;1.10;;
66667;SDS011;57205;51.438;-2.006;2023-12-04T03:00:35;3.95;;;1.42;;
66667;SDS011;57205;51.438;-2.006;2023-12-04T03:03:00;2.75;;;1.30;;
66667;SDS011;57205;51.438;-2.006;2023-12-04T03:05:25;2.47;;;1.20;;
66667;SDS011;57205;51.438;-2.006;2023-12-04T03:07:51;5.32;;;1.23;;
66667;SDS011;57205;51.438;-2.006;2023-12-04T03:10:16;3.75;;;1.67;;
66667;SDS011;57205;51.438;-2.006;2023-12-04T03:12:42;3.53;;;1.58;;
66667;SDS011;57205;51.438;-2.006;2023-12-04T03:15:07;4.82;;;1.55;;
66667;SDS011;57205;51.438;-2.006;2023-12-04T03:17:33;3.78;;;1.60;;
66667;SDS011;57205;51.438;-2.006;2023-12-04T03:19:58;5.38;;;1.52;;
66667;SDS011;57205;51.438;-2.006;2023-12-04T03:22:24;4.18;;;1.67;;
66667;SDS011;57205;51.438;-2.006;2023-12-04T03:24:49;3.38;;;1.45;;
66667;SDS011;57205;51.438;-2.006;2023-12-04T03:27:14;3.45;;;1.65;;
66667;SDS011;57205;51.438;-2.006;2023-12-04T03:29:40;4.40;;;1.88;;
66667;SDS011;57205;51.438;-2.006;2023-12-04T03:32:05;4.38;;;2.10;;
66667;SDS011;57205;51.438;-2.006;2023-12-04T03:34:31;3.97;;;1.52;;
66667;SDS011;57205;51.438;-2.006;2023-12-04T03:36:56;3.78;;;1.70;;
66667;SDS011;57205;51.438;-2.006;2023-12-04T03:39:22;7.65;;;1.80;;
66667;SDS011;57205;51.438;-2.006;2023-12-04T03:41:47;3.78;;;1.40;;
66667;SDS011;57205;51.438;-2.006;2023-12-04T03:44:12;5.47;;;1.52;;
66667;SDS011;57205;51.438;-2.006;2023-12-04T03:46:38;4.50;;;1.67;;
66667;SDS011;57205;51.438;-2.006;2023-12-04T03:49:04;4.70;;;1.75;;
66667;SDS011;57205;51.438;-2.006;2023-12-04T03:51:30;3.85;;;1.65;;
66667;SDS011;57205;51.438;-2.006;2023-12-04T03:53:55;3.97;;;1.50;;
66667;SDS011;57205;51.438;-2.006;2023-12-04T03:56:21;5.72;;;1.70;;
66667;SDS011;57205;51.438;-2.006;2023-12-04T03:58:46;6.55;;;1.80;;
66667;SDS011;57205;51.438;-2.006;2023-12-04T04:01:12;5.32;;;1.83;;
66667;SDS011;57205;51.438;-2.006;2023-12-04T04:03:37;3.78;;;1.58;;
66667;SDS011;57205;51.438;-2.006;2023-12-04T04:06:03;4.20;;;1.40;;
66667;SDS011;57205;51.438;-2.006;2023-12-04T04:08:29;3.63;;;1.35;;
66667;SDS011;57205;51.438;-2.006;2023-12-04T04:10:54;2.80;;;1.23;;
66667;SDS011;57205;51.438;-2.006;2023-12-04T04:13:20;4.63;;;1.77;;
66667;SDS011;57205;51.438;-2.006;2023-12-04T04:15:45;4.25;;;1.33;;
66667;SDS011;57205;51.438;-2.006;2023-12-04T04:18:11;3.72;;;1.65;;
66667;SDS011;57205;51.438;-2.006;2023-12-04T04:20:36;2.88;;;1.42;;
66667;SDS011;57205;51.438;-2.006;2023-12-04T04:23:02;3.63;;;1.70;;
66667;SDS011;57205;51.438;-2.006;2023-12-04T04:25:27;3.38;;;1.33;;
66667;SDS011;57205;51.438;-2.006;2023-12-04T04:27:52;4.60;;;1.20;;
66667;SDS011;57205;51.438;-2.006;2023-12-04T04:30:18;2.92;;;1.50;;
66667;SDS011;57205;51.438;-2.006;2023-12-04T04:32:43;3.22;;;1.10;;
66667;SDS011;57205;51.438;-2.006;2023-12-04T04:35:09;2.85;;;1.23;;
66667;SDS011;57205;51.438;-2.006;2023-12-04T04:37:34;3.00;;;1.40;;
66667;SDS011;57205;51.438;-2.006;2023-12-04T04:40:00;2.50;;;1.45;;
66667;SDS011;57205;51.438;-2.006;2023-12-04T04:42:26;3.20;;;1.60;;
66667;SDS011;57205;51.438;-2.006;2023-12-04T04:44:52;5.50;;;1.50;;
66667;SDS011;57205;51.438;-2.006;2023-12-04T04:47:18;4.47;;;1.50;;
66667;SDS011;57205;51.438;-2.006;2023-12-04T04:49:43;2.95;;;1.30;;
66667;SDS011;57205;51.438;-2.006;2023-12-04T04:52:08;6.22;;;1.63;;
66667;SDS011;57205;51.438;-2.006;2023-12-04T04:54:34;2.58;;;1.67;;
66667;SDS011;57205;51.438;-2.006;2023-12-04T04:56:59;3.40;;;1.60;;
66667;SDS011;57205;51.438;-2.006;2023-12-04T04:59:25;4.20;;;1.60;;
66667;SDS011;57205;51.438;-2.006;2023-12-04T05:01:50;4.63;;;1.60;;
66667;SDS011;57205;51.438;-2.006;2023-12-04T05:04:16;4.45;;;1.70;;
66667;SDS011;57205;51.438;-2.006;2023-12-04T05:06:41;5.45;;;1.50;;
66667;SDS011;57205;51.438;-2.006;2023-12-04T05:09:07;3.55;;;1.60;;
66667;SDS011;57205;51.438;-2.006;2023-12-04T05:11:32;3.60;;;1.67;;
66667;SDS011;57205;51.438;-2.006;2023-12-04T05:13:57;3.33;;;1.73;;
66667;SDS011;57205;51.438;-2.006;2023-12-04T05:16:24;3.47;;;1.67;;
66667;SDS011;57205;51.438;-2.006;2023-12-04T05:18:49;4.13;;;1.63;;
66667;SDS011;57205;51.438;-2.006;2023-12-04T05:21:14;4.93;;;2.10;;
66667;SDS011;57205;51.438;-2.006;2023-12-04T05:23:41;5.38;;;1.95;;
66667;SDS011;57205;51.438;-2.006;2023-12-04T05:26:07;5.75;;;2.28;;
66667;SDS011;57205;51.438;-2.006;2023-12-04T05:28:32;5.55;;;1.50;;
66667;SDS011;57205;51.438;-2.006;2023-12-04T05:30:59;3.40;;;1.75;;
66667;SDS011;57205;51.438;-2.006;2023-12-04T05:33:25;4.80;;;1.75;;
66667;SDS011;57205;51.438;-2.006;2023-12-04T05:35:50;5.93;;;1.58;;
66667;SDS011;57205;51.438;-2.006;2023-12-04T05:38:18;3.20;;;1.60;;
66667;SDS011;57205;51.438;-2.006;2023-12-04T05:40:44;2.60;;;1.30;;
66667;SDS011;57205;51.438;-2.006;2023-12-04T05:43:09;3.00;;;1.38;;
66667;SDS011;57205;51.438;-2.006;2023-12-04T05:45:35;3.88;;;1.95;;
66667;SDS011;57205;51.438;-2.006;2023-12-04T05:48:01;2.60;;;1.30;;
66667;SDS011;57205;51.438;-2.006;2023-12-04T05:50:27;3.72;;;1.80;;
66667;SDS011;57205;51.438;-2.006;2023-12-04T05:52:52;3.95;;;1.40;;
66667;SDS011;57205;51.438;-2.006;2023-12-04T05:55:18;6.70;;;1.92;;
66667;SDS011;57205;51.438;-2.006;2023-12-04T05:57:45;3.75;;;1.45;;
66667;SDS011;57205;51.438;-2.006;2023-12-04T06:00:10;3.72;;;1.70;;
66667;SDS011;57205;51.438;-2.006;2023-12-04T06:02:46;3.80;;;1.58;;
66667;SDS011;57205;51.438;-2.006;2023-12-04T06:05:13;2.67;;;1.30;;
66667;SDS011;57205;51.438;-2.006;2023-12-04T06:07:38;6.30;;;1.40;;
66667;SDS011;57205;51.438;-2.006;2023-12-04T06:10:05;6.00;;;1.40;;
66667;SDS011;57205;51.438;-2.006;2023-12-04T06:12:31;2.58;;;1.30;;
66667;SDS011;57205;51.438;-2.006;2023-12-04T06:14:57;3.30;;;1.40;;
66667;SDS011;57205;51.438;-2.006;2023-12-04T06:17:26;4.20;;;1.40;;
66667;SDS011;57205;51.438;-2.006;2023-12-04T06:19:52;3.25;;;1.55;;
66667;SDS011;57205;51.438;-2.006;2023-12-04T06:22:19;2.22;;;1.17;;
66667;SDS011;57205;51.438;-2.006;2023-12-04T06:24:46;1.48;;;0.98;;
66667;SDS011;57205;51.438;-2.006;2023-12-04T06:27:16;3.70;;;1.90;;
66667;SDS011;57205;51.438;-2.006;2023-12-04T06:29:45;3.85;;;1.38;;
66667;SDS011;57205;51.438;-2.006;2023-12-04T06:32:11;2.60;;;1.13;;
66667;SDS011;57205;51.438;-2.006;2023-12-04T06:34:37;4.95;;;1.10;;
66667;SDS011;57205;51.438;-2.006;2023-12-04T06:37:03;3.08;;;1.40;;
66667;SDS011;57205;51.438;-2.006;2023-12-04T06:39:37;3.97;;;1.45;;
66667;SDS011;57205;51.438;-2.006;2023-12-04T06:42:04;5.07;;;1.40;;
66667;SDS011;57205;51.438;-2.006;2023-12-04T06:44:31;3.63;;;1.40;;
66667;SDS011;57205;51.438;-2.006;2023-12-04T06:46:57;7.28;;;1.35;;
66667;SDS011;57205;51.438;-2.006;2023-12-04T06:49:28;4.03;;;1.30;;
66667;SDS011;57205;51.438;-2.006;2023-12-04T06:51:56;3.22;;;0.95;;
66667;SDS011;57205;51.438;-2.006;2023-12-04T06:54:21;3.50;;;1.20;;
66667;SDS011;57205;51.438;-2.006;2023-12-04T06:56:46;3.97;;;1.25;;
66667;SDS011;57205;51.438;-2.006;2023-12-04T06:59:13;2.83;;;1.10;;
66667;SDS011;57205;51.438;-2.006;2023-12-04T07:01:38;4.75;;;1.17;;
66667;SDS011;57205;51.438;-2.006;2023-12-04T07:04:04;3.08;;;1.50;;
66667;SDS011;57205;51.438;-2.006;2023-12-04T07:06:35;2.00;;;1.30;;
66667;SDS011;57205;51.438;-2.006;2023-12-04T07:09:00;4.57;;;1.08;;
66667;SDS011;57205;51.438;-2.006;2023-12-04T07:11:28;6.97;;;2.22;;
66667;SDS011;57205;51.438;-2.006;2023-12-04T07:13:54;3.85;;;1.65;;
66667;SDS011;57205;51.438;-2.006;2023-12-04T07:16:20;7.22;;;1.73;;
66667;SDS011;57205;51.438;-2.006;2023-12-04T07:18:45;6.40;;;2.28;;
66667;SDS011;57205;51.438;-2.006;2023-12-04T07:21:12;9.02;;;2.60;;
66667;SDS011;57205;51.438;-2.006;2023-12-04T07:23:38;5.50;;;2.17;;
66667;SDS011;57205;51.438;-2.006;2023-12-04T07:26:03;6.72;;;2.13;;
66667;SDS011;57205;51.438;-2.006;2023-12-04T07:28:31;6.82;;;3.40;;
66667;SDS011;57205;51.438;-2.006;2023-12-04T07:30:57;5.95;;;2.95;;
66667;SDS011;57205;51.438;-2.006;2023-12-04T07:33:22;8.52;;;2.85;;
66667;SDS011;57205;51.438;-2.006;2023-12-04T07:35:48;9.60;;;3.67;;
66667;SDS011;57205;51.438;-2.006;2023-12-04T07:38:16;7.07;;;3.10;;
66667;SDS011;57205;51.438;-2.006;2023-12-04T07:40:41;8.80;;;3.65;;
66667;SDS011;57205;51.438;-2.006;2023-12-04T07:43:09;8.57;;;4.05;;
66667;SDS011;57205;51.438;-2.006;2023-12-04T07:45:34;9.63;;;3.92;;
66667;SDS011;57205;51.438;-2.006;2023-12-04T07:48:03;7.35;;;4.20;;
66667;SDS011;57205;51.438;-2.006;2023-12-04T07:50:29;10.85;;;4.43;;
66667;SDS011;57205;51.438;-2.006;2023-12-04T07:52:55;13.20;;;4.85;;
66667;SDS011;57205;51.438;-2.006;2023-12-04T07:55:21;14.02;;;5.20;;
66667;SDS011;57205;51.438;-2.006;2023-12-04T07:57:46;24.80;;;11.10;;
66667;SDS011;57205;51.438;-2.006;2023-12-04T08:00:12;12.77;;;5.35;;
66667;SDS011;57205;51.438;-2.006;2023-12-04T08:02:39;16.10;;;6.07;;
66667;SDS011;57205;51.438;-2.006;2023-12-04T08:05:04;14.40;;;6.70;;
66667;SDS011;57205;51.438;-2.006;2023-12-04T08:07:30;10.70;;;5.90;;
66667;SDS011;57205;51.438;-2.006;2023-12-04T08:09:55;11.88;;;6.00;;
66667;SDS011;57205;51.438;-2.006;2023-12-04T08:12:21;15.63;;;7.22;;
66667;SDS011;57205;51.438;-2.006;2023-12-04T08:14:47;13.75;;;7.32;;
66667;SDS011;57205;51.438;-2.006;2023-12-04T08:17:12;13.55;;;6.70;;
66667;SDS011;57205;51.438;-2.006;2023-12-04T08:19:38;14.00;;;6.60;;
66667;SDS011;57205;51.438;-2.006;2023-12-04T08:22:03;16.35;;;6.53;;
66667;SDS011;57205;51.438;-2.006;2023-12-04T08:24:29;14.23;;;5.88;;
66667;SDS011;57205;51.438;-2.006;2023-12-04T08:26:56;22.67;;;8.82;;
66667;SDS011;57205;51.438;-2.006;2023-12-04T08:29:22;16.63;;;6.65;;
66667;SDS011;57205;51.438;-2.006;2023-12-04T08:31:47;15.57;;;6.05;;
66667;SDS011;57205;51.438;-2.006;2023-12-04T08:34:13;16.10;;;6.57;;
66667;SDS011;57205;51.438;-2.006;2023-12-04T08:36:38;10.38;;;5.55;;
66667;SDS011;57205;51.438;-2.006;2023-12-04T08:39:03;16.50;;;6.70;;
66667;SDS011;57205;51.438;-2.006;2023-12-04T08:41:29;12.18;;;6.63;;
66667;SDS011;57205;51.438;-2.006;2023-12-04T08:43:54;34.35;;;17.88;;
66667;SDS011;57205;51.438;-2.006;2023-12-04T08:46:21;15.27;;;6.68;;
66667;SDS011;57205;51.438;-2.006;2023-12-04T08:48:46;14.75;;;5.97;;
66667;SDS011;57205;51.438;-2.006;2023-12-04T08:51:18;18.00;;;6.25;;
66667;SDS011;57205;51.438;-2.006;2023-12-04T08:53:43;11.18;;;5.68;;
66667;SDS011;57205;51.438;-2.006;2023-12-04T08:56:09;11.88;;;5.75;;
66667;SDS011;57205;51.438;-2.006;2023-12-04T08:58:36;14.27;;;5.80;;
66667;SDS011;57205;51.438;-2.006;2023-12-04T09:01:01;14.70;;;5.68;;
66667;SDS011;57205;51.438;-2.006;2023-12-04T09:03:27;12.98;;;6.30;;
66667;SDS011;57205;51.438;-2.006;2023-12-04T09:05:52;9.70;;;5.97;;
66667;SDS011;57205;51.438;-2.006;2023-12-04T09:08:20;12.55;;;6.53;;
66667;SDS011;57205;51.438;-2.006;2023-12-04T09:10:47;17.40;;;6.53;;
66667;SDS011;57205;51.438;-2.006;2023-12-04T09:13:14;11.25;;;6.18;;
66667;SDS011;57205;51.438;-2.006;2023-12-04T09:15:40;16.45;;;6.78;;
66667;SDS011;57205;51.438;-2.006;2023-12-04T09:18:05;9.52;;;6.38;;
66667;SDS011;57205;51.438;-2.006;2023-12-04T09:20:31;13.43;;;6.45;;
66667;SDS011;57205;51.438;-2.006;2023-12-04T09:22:56;9.20;;;5.05;;
66667;SDS011;57205;51.438;-2.006;2023-12-04T09:25:21;14.57;;;6.40;;
66667;SDS011;57205;51.438;-2.006;2023-12-04T09:27:47;11.88;;;6.47;;
66667;SDS011;57205;51.438;-2.006;2023-12-04T09:30:12;12.43;;;6.13;;
66667;SDS011;57205;51.438;-2.006;2023-12-04T09:32:38;20.90;;;7.78;;
66667;SDS011;57205;51.438;-2.006;2023-12-04T09:35:04;19.80;;;8.63;;
66667;SDS011;57205;51.438;-2.006;2023-12-04T09:37:30;13.25;;;7.97;;
66667;SDS011;57205;51.438;-2.006;2023-12-04T09:39:55;11.77;;;6.50;;
66667;SDS011;57205;51.438;-2.006;2023-12-04T09:42:21;12.30;;;7.43;;
66667;SDS011;57205;51.438;-2.006;2023-12-04T09:44:47;13.73;;;7.50;;
66667;SDS011;57205;51.438;-2.006;2023-12-04T09:47:17;9.23;;;6.72;;
66667;SDS011;57205;51.438;-2.006;2023-12-04T09:49:43;11.85;;;6.13;;
66667;SDS011;57205;51.438;-2.006;2023-12-04T09:52:09;11.35;;;6.22;;
66667;SDS011;57205;51.438;-2.006;2023-12-04T09:54:35;10.70;;;5.82;;
66667;SDS011;57205;51.438;-2.006;2023-12-04T09:57:03;10.43;;;6.05;;
66667;SDS011;57205;51.438;-2.006;2023-12-04T09:59:29;9.27;;;5.40;;
66667;SDS011;57205;51.438;-2.006;2023-12-04T10:01:56;12.55;;;6.28;;
66667;SDS011;57205;51.438;-2.006;2023-12-04T10:04:22;11.98;;;5.18;;
66667;SDS011;57205;51.438;-2.006;2023-12-04T10:06:50;9.75;;;4.90;;
66667;SDS011;57205;51.438;-2.006;2023-12-04T10:09:17;7.57;;;5.10;;
66667;SDS011;57205;51.438;-2.006;2023-12-04T10:11:46;9.23;;;4.55;;
66667;SDS011;57205;51.438;-2.006;2023-12-04T10:14:14;7.35;;;3.78;;
66667;SDS011;57205;51.438;-2.006;2023-12-04T10:16:41;8.05;;;4.28;;
66667;SDS011;57205;51.438;-2.006;2023-12-04T10:21:52;5.85;;;3.28;;
66667;SDS011;57205;51.438;-2.006;2023-12-04T10:24:30;7.85;;;3.60;;
66667;SDS011;57205;51.438;-2.006;2023-12-04T10:26:57;6.28;;;2.80;;
66667;SDS011;57205;51.438;-2.006;2023-12-04T10:29:23;6.25;;;3.42;;
66667;SDS011;57205;51.438;-2.006;2023-12-04T10:31:51;4.75;;;3.28;;
66667;SDS011;57205;51.438;-2.006;2023-12-04T10:34:17;4.38;;;3.03;;
66667;SDS011;57205;51.438;-2.006;2023-12-04T10:36:44;6.32;;;2.50;;
66667;SDS011;57205;51.438;-2.006;2023-12-04T10:39:10;4.80;;;2.67;;
66667;SDS011;57205;51.438;-2.006;2023-12-04T10:41:38;4.68;;;2.60;;
66667;SDS011;57205;51.438;-2.006;2023-12-04T10:44:04;6.50;;;2.80;;
66667;SDS011;57205;51.438;-2.006;2023-12-04T10:46:29;4.97;;;2.78;;
66667;SDS011;57205;51.438;-2.006;2023-12-04T10:48:56;5.28;;;2.70;;
66667;SDS011;57205;51.438;-2.006;2023-12-04T10:51:22;4.85;;;2.85;;
66667;SDS011;57205;51.438;-2.006;2023-12-04T10:53:48;3.72;;;2.50;;
66667;SDS011;57205;51.438;-2.006;2023-12-04T10:56:15;5.75;;;2.90;;
66667;SDS011;57205;51.438;-2.006;2023-12-04T10:58:45;5.65;;;2.15;;
66667;SDS011;57205;51.438;-2.006;2023-12-04T11:01:15;3.70;;;2.53;;
66667;SDS011;57205;51.438;-2.006;2023-12-04T11:03:50;4.07;;;2.63;;
66667;SDS011;57205;51.438;-2.006;2023-12-04T11:06:19;4.32;;;2.60;;
66667;SDS011;57205;51.438;-2.006;2023-12-04T11:08:47;5.43;;;3.03;;
66667;SDS011;57205;51.438;-2.006;2023-12-04T11:11:27;8.45;;;3.47;;
66667;SDS011;57205;51.438;-2.006;2023-12-04T11:13:58;4.82;;;3.05;;
66667;SDS011;57205;51.438;-2.006;2023-12-04T11:19:29;5.82;;;3.53;;
66667;SDS011;57205;51.438;-2.006;2023-12-04T11:22:04;6.47;;;3.22;;
66667;SDS011;57205;51.438;-2.006;2023-12-04T11:24:32;7.63;;;3.40;;
66667;SDS011;57205;51.438;-2.006;2023-12-04T11:26:58;5.85;;;2.97;;
66667;SDS011;57205;51.438;-2.006;2023-12-04T11:29:23;6.82;;;3.30;;
66667;SDS011;57205;51.438;-2.006;2023-12-04T11:31:50;5.18;;;3.08;;
66667;SDS011;57205;51.438;-2.006;2023-12-04T11:34:16;5.70;;;2.70;;
66667;SDS011;57205;51.438;-2.006;2023-12-04T11:36:41;4.40;;;2.72;;
66667;SDS011;57205;51.438;-2.006;2023-12-04T11:39:10;4.40;;;2.67;;
66667;SDS011;57205;51.438;-2.006;2023-12-04T11:41:36;6.55;;;2.17;;
66667;SDS011;57205;51.438;-2.006;2023-12-04T11:44:02;4.05;;;2.40;;
66667;SDS011;57205;51.438;-2.006;2023-12-04T11:46:28;5.28;;;2.53;;
66667;SDS011;57205;51.438;-2.006;2023-12-04T11:48:56;3.92;;;2.53;;
66667;SDS011;57205;51.438;-2.006;2023-12-04T11:54:16;5.00;;;2.33;;
66667;SDS011;57205;51.438;-2.006;2023-12-04T11:56:56;5.30;;;2.30;;
66667;SDS011;57205;51.438;-2.006;2023-12-04T11:59:46;3.85;;;1.90;;
66667;SDS011;57205;51.438;-2.006;2023-12-04T12:02:11;3.50;;;1.60;;
66667;SDS011;57205;51.438;-2.006;2023-12-04T12:04:37;4.88;;;2.35;;
66667;SDS011;57205;51.438;-2.006;2023-12-04T12:07:04;3.92;;;2.10;;
66667;SDS011;57205;51.438;-2.006;2023-12-04T12:09:31;2.78;;;1.77;;
66667;SDS011;57205;51.438;-2.006;2023-12-04T12:12:01;3.45;;;1.83;;
66667;SDS011;57205;51.438;-2.006;2023-12-04T12:14:28;3.83;;;2.05;;
66667;SDS011;57205;51.438;-2.006;2023-12-04T12:16:54;4.35;;;2.35;;
66667;SDS011;57205;51.438;-2.006;2023-12-04T12:19:20;4.88;;;2.28;;
66667;SDS011;57205;51.438;-2.006;2023-12-04T12:21:46;4.82;;;2.38;;
66667;SDS011;57205;51.438;-2.006;2023-12-04T12:24:14;7.53;;;2.20;;
66667;SDS011;57205;51.438;-2.006;2023-12-04T12:26:39;4.03;;;1.88;;
66667;SDS011;57205;51.438;-2.006;2023-12-04T12:29:05;4.13;;;1.95;;
66667;SDS011;57205;51.438;-2.006;2023-12-04T12:31:31;5.22;;;2.10;;
66667;SDS011;57205;51.438;-2.006;2023-12-04T12:33:57;3.67;;;1.70;;
66667;SDS011;57205;51.438;-2.006;2023-12-04T12:36:22;6.22;;;2.22;;
66667;SDS011;57205;51.438;-2.006;2023-12-04T12:38:48;5.15;;;2.17;;
66667;SDS011;57205;51.438;-2.006;2023-12-04T12:41:18;5.38;;;2.28;;
66667;SDS011;57205;51.438;-2.006;2023-12-04T12:43:44;3.33;;;1.73;;
66667;SDS011;57205;51.438;-2.006;2023-12-04T12:46:10;2.58;;;1.30;;
66667;SDS011;57205;51.438;-2.006;2023-12-04T12:48:36;2.85;;;1.50;;
66667;SDS011;57205;51.438;-2.006;2023-12-04T12:51:04;4.78;;;1.48;;
66667;SDS011;57205;51.438;-2.006;2023-12-04T12:53:34;3.90;;;1.88;;
66667;SDS011;57205;51.438;-2.006;2023-12-04T12:56:00;4.55;;;1.30;;
66667;SDS011;57205;51.438;-2.006;2023-12-04T12:58:28;2.30;;;1.17;;
66667;SDS011;57205;51.438;-2.006;2023-12-04T13:00:54;3.42;;;1.20;;
66667;SDS011;57205;51.438;-2.006;2023-12-04T13:03:20;3.42;;;1.30;;
66667;SDS011;57205;51.438;-2.006;2023-12-04T13:05:46;3.15;;;1.40;;
66667;SDS011;57205;51.438;-2.006;2023-12-04T13:08:12;3.47;;;1.65;;
66667;SDS011;57205;51.438;-2.006;2023-12-04T13:10:38;1.88;;;0.93;;
66667;SDS011;57205;51.438;-2.006;2023-12-04T13:13:14;2.55;;;1.45;;
66667;SDS011;57205;51.438;-2.006;2023-12-04T13:15:40;2.75;;;1.30;;
66667;SDS011;57205;51.438;-2.006;2023-12-04T13:18:06;4.25;;;1.45;;
66667;SDS011;57205;51.438;-2.006;2023-12-04T13:20:32;1.95;;;1.10;;
66667;SDS011;57205;51.438;-2.006;2023-12-04T13:22:59;2.65;;;1.45;;
66667;SDS011;57205;51.438;-2.006;2023-12-04T13:25:25;2.60;;;1.20;;
66667;SDS011;57205;51.438;-2.006;2023-12-04T13:27:50;2.00;;;1.10;;
66667;SDS011;57205;51.438;-2.006;2023-12-04T13:30:16;3.80;;;1.33;;
66667;SDS011;57205;51.438;-2.006;2023-12-04T13:32:41;2.80;;;1.20;;
66667;SDS011;57205;51.438;-2.006;2023-12-04T13:35:07;3.70;;;1.33;;
66667;SDS011;57205;51.438;-2.006;2023-12-04T13:37:33;2.75;;;1.23;;
66667;SDS011;57205;51.438;-2.006;2023-12-04T13:40:01;2.78;;;1.35;;
66667;SDS011;57205;51.438;-2.006;2023-12-04T13:42:35;3.80;;;1.30;;
66667;SDS011;57205;51.438;-2.006;2023-12-04T13:45:19;5.03;;;1.40;;
66667;SDS011;57205;51.438;-2.006;2023-12-04T13:47:48;3.22;;;1.20;;
66667;SDS011;57205;51.438;-2.006;2023-12-04T13:50:14;4.18;;;1.27;;
66667;SDS011;57205;51.438;-2.006;2023-12-04T13:52:40;5.93;;;1.80;;
66667;SDS011;57205;51.438;-2.006;2023-12-04T13:55:08;4.30;;;2.20;;
66667;SDS011;57205;51.438;-2.006;2023-12-04T13:57:43;4.28;;;2.28;;
66667;SDS011;57205;51.438;-2.006;2023-12-04T14:00:20;3.80;;;1.80;;
66667;SDS011;57205;51.438;-2.006;2023-12-04T14:02:46;3.55;;;2.00;;
66667;SDS011;57205;51.438;-2.006;2023-12-04T14:05:11;3.58;;;1.90;;
66667;SDS011;57205;51.438;-2.006;2023-12-04T14:07:40;2.55;;;1.33;;
66667;SDS011;57205;51.438;-2.006;2023-12-04T14:10:08;3.25;;;1.73;;
66667;SDS011;57205;51.438;-2.006;2023-12-04T14:12:34;6.65;;;2.17;;
66667;SDS011;57205;51.438;-2.006;2023-12-04T14:15:01;2.53;;;1.40;;
66667;SDS011;57205;51.438;-2.006;2023-12-04T14:17:28;3.20;;;2.13;;
66667;SDS011;57205;51.438;-2.006;2023-12-04T14:19:54;3.72;;;2.25;;
66667;SDS011;57205;51.438;-2.006;2023-12-04T14:22:19;3.85;;;1.92;;
66667;SDS011;57205;51.438;-2.006;2023-12-04T14:24:44;3.20;;;2.20;;
66667;SDS011;57205;51.438;-2.006;2023-12-04T14:27:10;3.58;;;2.13;;
66667;SDS011;57205;51.438;-2.006;2023-12-04T14:29:39;4.45;;;2.55;;
66667;SDS011;57205;51.438;-2.006;2023-12-04T14:32:05;6.22;;;2.53;;
66667;SDS011;57205;51.438;-2.006;2023-12-04T14:34:31;4.72;;;2.90;;
66667;SDS011;57205;51.438;-2.006;2023-12-04T14:36:57;4.03;;;2.72;;